Time;durP1;ratioP1;P1;durP2;ratioP2;P2;SDS_P1;SDS_P2;PMS_P1;PMS_P2;Temp;Humidity;BMP_temperature;BMP_pressure;BME280_temperature;BME280_humidity;BME280_pressure;Samples;Min_cycle;Max_cycle;Signal;HPM_P1;HPM_P2
2022/12/27 00:00:15;;;;;;;;;;;18.90;42.60;;;;;;5079342;28;19920;-68
2022/12/27 00:02:42;;;;;;;;;;;18.90;42.60;;;;;;5097805;28;20315;-68
2022/12/27 00:05:09;;;;;;;;;;;18.90;42.60;;;;;;5091296;28;20373;-68
2022/12/27 00:07:37;;;;;;;;;;;18.90;42.60;;;;;;5086921;28;19973;-67
2022/12/27 00:10:05;;;;;;;;;;;18.90;42.60;;;;;;5109378;28;19927;-68
2022/12/27 00:12:31;;;;;;;;;;;18.90;42.60;;;;;;5108346;28;19972;-68
2022/12/27 00:14:58;;;;;;;;;;;18.90;42.60;;;;;;5108422;28;19968;-67
2022/12/27 00:17:25;;;;;;;;;;;18.90;42.60;;;;;;5062427;28;19920;-68
2022/12/27 00:19:52;;;;;;;;;;;18.90;42.60;;;;;;5089904;28;19920;-67
2022/12/27 00:22:18;;;;;;;;;;;18.90;42.60;;;;;;5096421;28;19923;-67
2022/12/27 00:24:47;;;;;;;;;;;18.90;42.60;;;;;;5095753;28;19927;-68
2022/12/27 00:27:13;;;;;;;;;;;18.90;42.60;;;;;;5091183;28;19985;-68
2022/12/27 00:29:40;;;;;;;;;;;18.90;42.60;;;;;;5094389;28;19963;-68
2022/12/27 00:32:07;;;;;;;;;;;18.90;42.60;;;;;;5094136;28;19924;-67
2022/12/27 00:34:34;;;;;;;;;;;18.90;42.60;;;;;;5091813;28;19920;-68
2022/12/27 00:37:00;;;;;;;;;;;18.90;42.60;;;;;;5109558;28;20019;-68
2022/12/27 00:39:27;;;;;;;;;;;18.90;42.60;;;;;;5086965;28;19923;-68
2022/12/27 00:41:55;;;;;;;;;;;18.90;42.60;;;;;;5092646;28;19959;-68
2022/12/27 00:44:22;;;;;;;;;;;18.90;42.60;;;;;;5102925;28;19959;-68
2022/12/27 00:46:48;;;;;;;;;;;18.90;42.60;;;;;;5092746;28;19924;-67
2022/12/27 00:49:15;;;;;;;;;;;18.90;42.60;;;;;;5093320;28;19920;-68
2022/12/27 00:51:42;;;;;;;;;;;18.90;42.60;;;;;;5089392;28;19919;-67
2022/12/27 00:54:09;;;;;;;;;;;18.80;42.50;;;;;;5095671;28;19986;-68
2022/12/27 00:56:35;;;;;;;;;;;18.80;42.50;;;;;;5114208;28;19923;-68
2022/12/27 00:59:04;;;;;;;;;;;18.90;42.60;;;;;;5108078;28;19920;-67
2022/12/27 01:01:32;;;;;;;;;;;18.80;42.50;;;;;;5089401;28;19928;-67
2022/12/27 01:03:58;;;;;;;;;;;18.90;42.60;;;;;;5095981;28;20025;-67
2022/12/27 01:06:27;;;;;;;;;;;18.80;42.50;;;;;;5103818;28;19958;-67
2022/12/27 01:08:54;;;;;;;;;;;18.80;42.50;;;;;;5095271;28;19920;-68
2022/12/27 01:11:21;;;;;;;;;;;18.80;42.50;;;;;;5084424;28;19920;-68
2022/12/27 01:13:47;;;;;;;;;;;18.80;42.50;;;;;;5093773;28;19962;-68
2022/12/27 01:16:16;;;;;;;;;;;18.90;42.60;;;;;;5109304;28;19924;-67
2022/12/27 01:18:43;;;;;;;;;;;18.80;42.50;;;;;;5090468;28;19981;-68
2022/12/27 01:21:10;;;;;;;;;;;18.80;42.50;;;;;;5086875;28;19920;-68
2022/12/27 01:23:37;;;;;;;;;;;18.80;42.50;;;;;;5081217;28;19950;-67
2022/12/27 01:26:04;;;;;;;;;;;18.80;42.50;;;;;;5104716;28;19948;-67
2022/12/27 01:28:31;;;;;;;;;;;18.80;42.50;;;;;;5093989;28;19923;-68
2022/12/27 01:30:57;;;;;;;;;;;18.80;42.50;;;;;;5085148;28;19919;-68
2022/12/27 01:33:26;;;;;;;;;;;18.80;42.50;;;;;;5075549;28;20001;-67
2022/12/27 01:35:53;;;;;;;;;;;18.80;42.50;;;;;;5090917;28;19927;-68
2022/12/27 01:38:19;;;;;;;;;;;18.80;42.50;;;;;;5085256;28;19950;-68
2022/12/27 01:40:46;;;;;;;;;;;18.80;42.50;;;;;;5054996;28;20539;-68
2022/12/27 01:43:14;;;;;;;;;;;18.80;42.50;;;;;;5093590;28;19984;-68
2022/12/27 01:45:40;;;;;;;;;;;18.80;42.40;;;;;;5094470;28;20284;-68
2022/12/27 01:48:10;;;;;;;;;;;18.80;42.50;;;;;;5094678;28;19920;-68
2022/12/27 01:50:39;;;;;;;;;;;18.80;42.40;;;;;;5094600;28;19927;-68
2022/12/27 01:53:07;;;;;;;;;;;18.80;42.40;;;;;;5068729;28;20365;-68
2022/12/27 01:55:36;;;;;;;;;;;18.80;42.50;;;;;;5069569;28;19966;-68
2022/12/27 01:58:03;;;;;;;;;;;18.80;42.50;;;;;;5087195;28;20427;-68
2022/12/27 02:00:30;;;;;;;;;;;18.80;42.40;;;;;;5091458;28;19927;-68
2022/12/27 02:02:56;;;;;;;;;;;18.80;42.50;;;;;;5089506;28;19921;-68
2022/12/27 02:05:24;;;;;;;;;;;18.80;42.50;;;;;;5091315;28;20015;-68
2022/12/27 02:08:05;;;;;;;;;;;18.80;42.40;;;;;;5090840;28;19966;-68
2022/12/27 02:10:32;;;;;;;;;;;18.80;42.40;;;;;;5062449;28;19934;-68
2022/12/27 02:12:59;;;;;;;;;;;18.80;42.50;;;;;;5071203;28;19920;-68
2022/12/27 02:15:26;;;;;;;;;;;18.80;42.40;;;;;;5089305;28;19920;-68
2022/12/27 02:17:53;;;;;;;;;;;18.80;42.40;;;;;;5092396;28;20040;-68
2022/12/27 02:20:21;;;;;;;;;;;18.80;42.40;;;;;;5090615;28;19924;-68
2022/12/27 02:26:19;;;;;;;;;;;18.80;42.40;;;;;;5090503;28;19974;-68
2022/12/27 02:28:50;;;;;;;;;;;18.80;42.40;;;;;;5023542;28;20026;-68
2022/12/27 02:31:18;;;;;;;;;;;18.80;42.40;;;;;;5072584;28;19926;-68
2022/12/27 02:33:46;;;;;;;;;;;18.80;42.40;;;;;;5089818;28;19920;-68
2022/12/27 02:36:14;;;;;;;;;;;18.80;42.40;;;;;;5090071;28;19932;-68
2022/12/27 02:38:42;;;;;;;;;;;18.80;42.40;;;;;;5075733;28;19963;-68
2022/12/27 02:55:09;;;;;;;;;;;18.80;42.40;;;;;;5051194;28;19920;-67
2022/12/27 02:57:37;;;;;;;;;;;18.80;42.40;;;;;;5091197;28;19924;-68
2022/12/27 03:03:27;;;;;;;;;;;18.80;42.40;;;;;;5000843;28;19931;-67
2022/12/27 03:08:56;;;;;;;;;;;18.80;42.40;;;;;;5053471;28;20022;-68
2022/12/27 03:17:00;;;;;;;;;;;18.80;42.40;;;;;;5070211;28;19921;-67
2022/12/27 03:27:36;;;;;;;;;;;18.80;42.40;;;;;;5069942;28;19969;-67
2022/12/27 03:35:35;;;;;;;;;;;18.80;42.30;;;;;;5070546;28;20282;-67
2022/12/27 03:38:04;;;;;;;;;;;18.80;42.40;;;;;;5052793;28;19925;-67
2022/12/27 03:40:33;;;;;;;;;;;18.80;42.30;;;;;;5052886;28;19927;-69
2022/12/27 03:43:10;;;;;;;;;;;18.80;42.40;;;;;;5052967;28;20015;-69
2022/12/27 03:48:33;;;;;;;;;;;18.80;42.40;;;;;;5085640;28;19927;-69
2022/12/27 03:51:03;;;;;;;;;;;18.80;42.30;;;;;;5083836;28;19920;-69
2022/12/27 03:53:30;;;;;;;;;;;18.70;42.30;;;;;;5072733;28;19920;-68
2022/12/27 03:55:57;;;;;;;;;;;18.80;42.30;;;;;;5094028;28;19966;-69
2022/12/27 03:58:24;;;;;;;;;;;18.80;42.30;;;;;;5085636;28;19974;-68
2022/12/27 04:00:51;;;;;;;;;;;18.70;42.80;;;;;;5094825;28;19920;-68
2022/12/27 04:03:17;;;;;;;;;;;18.80;42.30;;;;;;5085073;28;19924;-68
2022/12/27 04:05:46;;;;;;;;;;;18.80;42.30;;;;;;5068965;28;19924;-68
2022/12/27 04:35:35;;;;;;;;;;;18.70;42.30;;;;;;5070299;28;20213;-68
2022/12/27 04:38:04;;;;;;;;;;;18.80;42.30;;;;;;5056316;28;20057;-68
2022/12/27 04:56:59;;;;;;;;;;;18.80;42.40;;;;;;5075650;28;19926;-68
2022/12/27 05:02:10;;;;;;;;;;;18.80;42.30;;;;;;5090372;28;19924;-69
2022/12/27 05:04:37;;;;;;;;;;;18.80;42.30;;;;;;5091428;28;19924;-69
2022/12/27 05:13:58;;;;;;;;;;;18.80;42.30;;;;;;5089861;28;19960;-69
2022/12/27 05:15:20;;;;;;;;;;;18.80;42.30;;;;;;5084092;28;19921;-68
2022/12/27 05:17:47;;;;;;;;;;;18.70;42.30;;;;;;5061529;28;19920;-69
2022/12/27 05:20:13;;;;;;;;;;;18.80;42.30;;;;;;5093092;28;20365;-69
2022/12/27 05:25:36;;;;;;;;;;;18.80;42.30;;;;;;5091524;28;20289;-68
2022/12/27 05:28:02;;;;;;;;;;;18.80;42.30;;;;;;5063996;28;19986;-69
2022/12/27 05:30:29;;;;;;;;;;;18.70;42.30;;;;;;5086242;28;19936;-69
2022/12/27 05:32:56;;;;;;;;;;;18.80;42.40;;;;;;5064450;28;19935;-68
2022/12/27 05:35:22;;;;;;;;;;;18.80;42.30;;;;;;5091791;28;19969;-68
2022/12/27 05:37:49;;;;;;;;;;;18.70;42.30;;;;;;5090208;28;19931;-69
2022/12/27 05:40:16;;;;;;;;;;;18.80;42.30;;;;;;5082947;28;19927;-69
2022/12/27 05:42:44;;;;;;;;;;;18.70;42.30;;;;;;5054676;28;20014;-69
2022/12/27 05:45:11;;;;;;;;;;;18.80;42.40;;;;;;5085922;28;19920;-69
2022/12/27 05:47:38;;;;;;;;;;;18.80;42.30;;;;;;5073826;28;20039;-69
2022/12/27 05:50:05;;;;;;;;;;;18.80;42.30;;;;;;5089781;28;19924;-69
2022/12/27 05:52:32;;;;;;;;;;;18.80;42.30;;;;;;5071970;28;19928;-69
2022/12/27 05:54:58;;;;;;;;;;;18.80;42.30;;;;;;5089953;28;19970;-69
2022/12/27 05:57:25;;;;;;;;;;;18.80;43.00;;;;;;5066811;28;19920;-68
2022/12/27 05:59:53;;;;;;;;;;;18.80;42.30;;;;;;5052663;28;19946;-68
2022/12/27 06:02:20;;;;;;;;;;;18.80;42.30;;;;;;5063413;28;19974;-68
2022/12/27 06:04:47;;;;;;;;;;;18.80;42.30;;;;;;5090082;28;19920;-68
2022/12/27 06:07:14;;;;;;;;;;;18.80;42.30;;;;;;5093849;28;19923;-68
2022/12/27 06:09:41;;;;;;;;;;;18.80;42.30;;;;;;5078281;28;19924;-68
2022/12/27 06:12:08;;;;;;;;;;;18.80;42.30;;;;;;5053742;28;19920;-68
2022/12/27 06:14:35;;;;;;;;;;;18.80;42.40;;;;;;5077282;28;20765;-68
2022/12/27 06:17:03;;;;;;;;;;;18.80;42.40;;;;;;5111144;28;20385;-68
2022/12/27 06:19:29;;;;;;;;;;;18.80;42.40;;;;;;5082568;28;19920;-69
2022/12/27 06:21:56;;;;;;;;;;;18.80;42.40;;;;;;5065410;28;20334;-69
2022/12/27 06:24:23;;;;;;;;;;;18.80;42.40;;;;;;5091814;28;19920;-69
2022/12/27 06:26:50;;;;;;;;;;;18.80;42.40;;;;;;5074294;28;19923;-69
2022/12/27 06:29:16;;;;;;;;;;;18.80;42.40;;;;;;5088731;28;19920;-69
2022/12/27 06:31:43;;;;;;;;;;;18.80;42.30;;;;;;5081552;28;19931;-69
2022/12/27 06:34:12;;;;;;;;;;;18.70;42.30;;;;;;5099312;28;20308;-69
2022/12/27 06:36:38;;;;;;;;;;;18.80;42.30;;;;;;5112254;28;19965;-68
2022/12/27 06:39:05;;;;;;;;;;;18.80;42.30;;;;;;5079512;28;19944;-68
2022/12/27 06:41:32;;;;;;;;;;;18.80;42.30;;;;;;5071295;28;19920;-68
2022/12/27 06:43:58;;;;;;;;;;;18.80;42.30;;;;;;5083014;28;20484;-68
2022/12/27 06:46:25;;;;;;;;;;;18.80;42.40;;;;;;5091341;28;20720;-68
2022/12/27 06:48:52;;;;;;;;;;;18.70;42.30;;;;;;5057655;28;19920;-69
2022/12/27 06:51:20;;;;;;;;;;;18.70;42.30;;;;;;5053836;28;19920;-68
2022/12/27 06:53:47;;;;;;;;;;;18.80;42.30;;;;;;5053105;28;19924;-68
2022/12/27 06:56:15;;;;;;;;;;;18.80;42.40;;;;;;5069697;28;19923;-68
2022/12/27 06:58:42;;;;;;;;;;;18.80;42.40;;;;;;5092990;28;20022;-67
2022/12/27 07:01:09;;;;;;;;;;;18.80;42.30;;;;;;5089870;28;19920;-68
2022/12/27 07:03:35;;;;;;;;;;;18.80;42.40;;;;;;5091209;28;19924;-69
2022/12/27 07:06:02;;;;;;;;;;;18.80;42.40;;;;;;5092844;28;19955;-68
2022/12/27 07:08:30;;;;;;;;;;;18.80;42.40;;;;;;5083353;28;19920;-68
2022/12/27 07:10:59;;;;;;;;;;;18.80;42.40;;;;;;5073680;28;19920;-68
2022/12/27 07:13:26;;;;;;;;;;;18.80;42.40;;;;;;5073793;28;19927;-69
2022/12/27 07:15:53;;;;;;;;;;;18.80;42.40;;;;;;5091914;28;19924;-68
2022/12/27 07:18:19;;;;;;;;;;;18.80;42.40;;;;;;5090608;28;19924;-68
2022/12/27 07:20:46;;;;;;;;;;;18.80;42.30;;;;;;5090561;28;19924;-68
2022/12/27 07:23:14;;;;;;;;;;;18.80;42.30;;;;;;5091173;28;19934;-68
2022/12/27 07:25:42;;;;;;;;;;;18.80;42.30;;;;;;5089218;28;19920;-68
2022/12/27 07:28:09;;;;;;;;;;;18.80;42.30;;;;;;5089894;28;19920;-68
2022/12/27 07:30:38;;;;;;;;;;;18.80;42.40;;;;;;5093758;28;19924;-67
2022/12/27 07:33:04;;;;;;;;;;;18.80;42.40;;;;;;5094197;28;19997;-68
2022/12/27 07:35:31;;;;;;;;;;;18.80;42.40;;;;;;5094808;28;19920;-67
2022/12/27 07:37:58;;;;;;;;;;;18.80;42.30;;;;;;5093226;28;19959;-67
2022/12/27 07:40:25;;;;;;;;;;;18.80;42.40;;;;;;5093234;28;19931;-68
2022/12/27 07:42:53;;;;;;;;;;;18.80;42.30;;;;;;5092853;28;19926;-67
2022/12/27 07:45:20;;;;;;;;;;;18.80;42.40;;;;;;5095447;28;19965;-67
2022/12/27 07:47:46;;;;;;;;;;;18.80;42.30;;;;;;5096988;28;20349;-65
2022/12/27 07:50:13;;;;;;;;;;;18.80;42.30;;;;;;5093576;28;19924;-67
2022/12/27 07:52:40;;;;;;;;;;;18.80;42.30;;;;;;5095227;28;20049;-67
2022/12/27 07:55:07;;;;;;;;;;;18.80;42.40;;;;;;5093548;28;19981;-68
2022/12/27 07:57:34;;;;;;;;;;;18.80;42.40;;;;;;5093829;28;20313;-66
2022/12/27 08:00:02;;;;;;;;;;;18.80;42.30;;;;;;5097227;28;19926;-68
2022/12/27 08:02:30;;;;;;;;;;;18.80;42.40;;;;;;5070853;28;19946;-70
2022/12/27 08:04:56;;;;;;;;;;;18.80;42.40;;;;;;5072905;28;19924;-71
2022/12/27 08:07:23;;;;;;;;;;;18.80;42.40;;;;;;5100796;28;19928;-70
2022/12/27 08:09:50;;;;;;;;;;;18.80;42.40;;;;;;5073277;28;19924;-71
2022/12/27 08:12:16;;;;;;;;;;;18.80;42.40;;;;;;5075096;28;19920;-68
2022/12/27 08:14:43;;;;;;;;;;;18.80;42.60;;;;;;5094261;28;20436;-70
2022/12/27 08:17:14;;;;;;;;;;;18.80;42.50;;;;;;5087398;28;19969;-69
2022/12/27 08:19:41;;;;;;;;;;;18.80;42.50;;;;;;5079663;28;19949;-69
2022/12/27 08:22:09;;;;;;;;;;;18.80;42.50;;;;;;5088274;28;19920;-70
2022/12/27 08:24:37;;;;;;;;;;;18.80;42.50;;;;;;5082471;28;19935;-68
2022/12/27 08:27:03;;;;;;;;;;;18.80;42.50;;;;;;5084413;28;19943;-69
2022/12/27 08:29:30;;;;;;;;;;;18.80;42.60;;;;;;5086921;28;19920;-70
2022/12/27 08:31:57;;;;;;;;;;;18.80;42.50;;;;;;5080450;28;19919;-70
2022/12/27 08:34:25;;;;;;;;;;;18.80;42.60;;;;;;5078694;28;19931;-70
2022/12/27 08:36:52;;;;;;;;;;;18.80;42.60;;;;;;5066732;28;19960;-69
2022/12/27 08:39:19;;;;;;;;;;;18.80;42.60;;;;;;5093740;28;19924;-69
2022/12/27 08:41:46;;;;;;;;;;;18.80;42.60;;;;;;5093365;28;20000;-70
2022/12/27 08:44:13;;;;;;;;;;;18.80;42.60;;;;;;5080546;28;19927;-70
2022/12/27 08:46:39;;;;;;;;;;;18.90;42.70;;;;;;5081067;28;19924;-70
2022/12/27 08:49:06;;;;;;;;;;;18.90;42.70;;;;;;5092587;28;19927;-69
2022/12/27 08:51:35;;;;;;;;;;;18.90;42.80;;;;;;5087220;28;19950;-69
2022/12/27 08:54:01;;;;;;;;;;;18.90;42.70;;;;;;5079513;28;19935;-69
2022/12/27 08:56:28;;;;;;;;;;;18.90;42.70;;;;;;5100982;28;19920;-70
2022/12/27 08:58:55;;;;;;;;;;;18.90;42.70;;;;;;5082930;28;19981;-69
2022/12/27 09:01:24;;;;;;;;;;;18.90;42.70;;;;;;5080642;28;19965;-70
2022/12/27 09:03:50;;;;;;;;;;;18.90;42.80;;;;;;5056530;28;19924;-70
2022/12/27 09:06:17;;;;;;;;;;;18.90;42.80;;;;;;5073525;28;19920;-70
2022/12/27 09:08:46;;;;;;;;;;;18.90;42.80;;;;;;5078921;28;19920;-69
2022/12/27 09:11:14;;;;;;;;;;;19.00;42.80;;;;;;5085203;28;19919;-71
2022/12/27 09:13:41;;;;;;;;;;;18.90;42.80;;;;;;5078356;28;20007;-69
2022/12/27 09:16:09;;;;;;;;;;;19.00;42.80;;;;;;5075809;28;19920;-68
2022/12/27 09:18:36;;;;;;;;;;;19.00;42.80;;;;;;5086509;28;19924;-69
2022/12/27 09:21:04;;;;;;;;;;;19.00;42.90;;;;;;5075898;28;19920;-69
2022/12/27 09:23:30;;;;;;;;;;;19.00;42.80;;;;;;5083030;28;20292;-69
2022/12/27 09:25:59;;;;;;;;;;;19.00;42.90;;;;;;5077680;28;20300;-69
2022/12/27 09:28:25;;;;;;;;;;;19.00;42.90;;;;;;5097185;28;19924;-69
2022/12/27 09:30:52;;;;;;;;;;;19.00;42.90;;;;;;5062635;28;19924;-70
2022/12/27 09:33:19;;;;;;;;;;;19.00;42.90;;;;;;5085625;28;20373;-69
2022/12/27 09:35:46;;;;;;;;;;;19.00;42.90;;;;;;5087843;28;19928;-71
2022/12/27 09:38:13;;;;;;;;;;;19.00;42.90;;;;;;5067530;28;19924;-69
2022/12/27 09:40:39;;;;;;;;;;;19.00;42.90;;;;;;5073557;28;19970;-68
2022/12/27 09:43:08;;;;;;;;;;;19.00;42.90;;;;;;5086854;28;19969;-68
2022/12/27 09:45:35;;;;;;;;;;;19.00;42.90;;;;;;5087789;28;19920;-69
2022/12/27 09:48:03;;;;;;;;;;;19.00;42.90;;;;;;5061761;28;19974;-71
2022/12/27 09:50:30;;;;;;;;;;;19.00;42.90;;;;;;5079497;28;19923;-70
2022/12/27 09:52:59;;;;;;;;;;;19.10;43.10;;;;;;5088457;28;19980;-69
2022/12/27 09:55:30;;;;;;;;;;;19.10;43.60;;;;;;5078235;28;20332;-70
2022/12/27 09:57:57;;;;;;;;;;;19.10;43.10;;;;;;5079772;28;19930;-68
2022/12/27 10:00:26;;;;;;;;;;;19.00;43.00;;;;;;5078932;28;19922;-68
2022/12/27 10:02:52;;;;;;;;;;;19.10;43.10;;;;;;5083661;28;19970;-68
2022/12/27 10:05:20;;;;;;;;;;;19.00;42.90;;;;;;5075874;28;19927;-64
2022/12/27 10:07:49;;;;;;;;;;;19.00;43.00;;;;;;5080536;28;19920;-64
2022/12/27 10:10:17;;;;;;;;;;;19.10;43.10;;;;;;5103472;28;19977;-64
2022/12/27 10:12:50;;;;;;;;;;;19.00;42.80;;;;;;5087386;28;19926;-65
2022/12/27 10:15:19;;;;;;;;;;;19.10;42.80;;;;;;5078297;28;19919;-63
2022/12/27 10:17:50;;;;;;;;;;;19.10;42.60;;;;;;5091823;28;20026;-64
2022/12/27 10:20:22;;;;;;;;;;;19.10;42.40;;;;;;5065094;28;20046;-64
2022/12/27 10:22:49;;;;;;;;;;;19.00;42.10;;;;;;5080782;28;19932;-64
2022/12/27 10:25:17;;;;;;;;;;;19.00;41.90;;;;;;5092042;28;19924;-64
2022/12/27 10:27:44;;;;;;;;;;;19.00;41.90;;;;;;5092271;28;20352;-69
2022/12/27 10:30:13;;;;;;;;;;;19.00;41.90;;;;;;5084432;28;19949;-69
2022/12/27 10:32:40;;;;;;;;;;;19.00;42.00;;;;;;5082537;28;19924;-68
2022/12/27 10:35:12;;;;;;;;;;;19.00;42.10;;;;;;5081747;28;20172;-68
2022/12/27 10:37:38;;;;;;;;;;;19.00;42.20;;;;;;5101580;28;20020;-68
2022/12/27 10:40:07;;;;;;;;;;;19.00;42.30;;;;;;5089838;28;20059;-68
2022/12/27 10:42:36;;;;;;;;;;;19.00;42.30;;;;;;5074533;28;19919;-70
2022/12/27 10:45:38;;;;;;;;;;;19.00;42.40;;;;;;5054367;28;19993;-68
2022/12/27 10:48:11;;;;;;;;;;;19.00;42.50;;;;;;4977540;28;19976;-69
2022/12/27 10:50:40;;;;;;;;;;;19.00;42.50;;;;;;5010045;28;19933;-70
2022/12/27 10:53:06;;;;;;;;;;;19.00;42.50;;;;;;5049125;28;19985;-69
2022/12/27 10:55:34;;;;;;;;;;;19.00;42.50;;;;;;5078213;28;19973;-69
2022/12/27 10:58:15;;;;;;;;;;;19.00;42.60;;;;;;5069566;28;19920;-68
2022/12/27 11:00:43;;;;;;;;;;;19.00;42.60;;;;;;5064906;28;19963;-68
2022/12/27 11:03:10;;;;;;;;;;;19.10;42.70;;;;;;5066281;28;19924;-68
2022/12/27 11:05:39;;;;;;;;;;;19.10;42.70;;;;;;5078233;28;19939;-69
2022/12/27 11:08:15;;;;;;;;;;;19.00;42.60;;;;;;5085921;28;19931;-70
2022/12/27 11:10:42;;;;;;;;;;;19.10;42.80;;;;;;5080006;28;19920;-71
2022/12/27 11:13:10;;;;;;;;;;;19.00;42.70;;;;;;5079422;28;19920;-69
2022/12/27 11:15:38;;;;;;;;;;;19.10;42.80;;;;;;5085243;28;19993;-69
2022/12/27 11:18:09;;;;;;;;;;;19.10;42.80;;;;;;5084550;28;19923;-69
2022/12/27 11:20:37;;;;;;;;;;;19.10;42.80;;;;;;5098076;28;20340;-69
2022/12/27 11:23:05;;;;;;;;;;;19.10;42.80;;;;;;5086701;28;20011;-70
2022/12/27 11:25:33;;;;;;;;;;;19.10;42.90;;;;;;5090092;28;19920;-70
2022/12/27 11:28:00;;;;;;;;;;;19.10;42.90;;;;;;5086257;28;19924;-69
2022/12/27 11:30:29;;;;;;;;;;;19.10;42.90;;;;;;5074794;28;20062;-68
2022/12/27 11:32:57;;;;;;;;;;;19.10;42.90;;;;;;5084571;28;20420;-69
2022/12/27 11:35:24;;;;;;;;;;;19.10;42.90;;;;;;5088124;28;19920;-70
2022/12/27 11:37:50;;;;;;;;;;;19.10;42.90;;;;;;5081106;28;20182;-68
2022/12/27 11:40:21;;;;;;;;;;;19.10;42.90;;;;;;5090738;28;19972;-67
2022/12/27 11:42:50;;;;;;;;;;;19.10;42.90;;;;;;5090402;28;19920;-68
2022/12/27 11:45:20;;;;;;;;;;;19.20;43.00;;;;;;5084307;28;20445;-69
2022/12/27 11:47:47;;;;;;;;;;;19.10;43.00;;;;;;5065127;28;19921;-68
2022/12/27 11:50:19;;;;;;;;;;;19.20;43.10;;;;;;5088031;28;19920;-69
2022/12/27 11:52:49;;;;;;;;;;;19.20;43.10;;;;;;5089911;28;19924;-69
2022/12/27 11:55:38;;;;;;;;;;;19.20;43.10;;;;;;5068946;28;19924;-68
2022/12/27 11:58:16;;;;;;;;;;;19.20;43.10;;;;;;5076362;28;19927;-70
2022/12/27 12:00:45;;;;;;;;;;;19.20;43.10;;;;;;5084228;28;19941;-68
2022/12/27 12:03:20;;;;;;;;;;;19.20;43.10;;;;;;5089376;28;19920;-69
2022/12/27 12:05:53;;;;;;;;;;;19.20;43.10;;;;;;5078965;28;19962;-69
2022/12/27 12:08:37;;;;;;;;;;;19.20;43.10;;;;;;5072038;28;19924;-69
2022/12/27 12:11:07;;;;;;;;;;;19.20;43.10;;;;;;5044023;28;20061;-69
2022/12/27 12:13:46;;;;;;;;;;;19.20;43.20;;;;;;5070336;28;19928;-70
2022/12/27 12:16:18;;;;;;;;;;;19.20;43.20;;;;;;5080025;28;19976;-68
2022/12/27 12:18:53;;;;;;;;;;;19.20;43.20;;;;;;5105196;28;20384;-69
2022/12/27 12:21:26;;;;;;;;;;;19.20;43.20;;;;;;5089452;28;19927;-68
2022/12/27 12:23:59;;;;;;;;;;;19.20;43.10;;;;;;5086569;28;19950;-68
2022/12/27 12:26:25;;;;;;;;;;;19.20;43.20;;;;;;5080721;28;19923;-69
2022/12/27 12:29:09;;;;;;;;;;;19.20;43.20;;;;;;5085982;28;19928;-68
2022/12/27 12:31:54;;;;;;;;;;;19.20;43.20;;;;;;5080791;28;19925;-69
2022/12/27 12:34:27;;;;;;;;;;;19.20;43.20;;;;;;5074005;28;19927;-69
2022/12/27 12:37:04;;;;;;;;;;;19.20;43.20;;;;;;5093786;28;19930;-70
2022/12/27 12:39:36;;;;;;;;;;;19.20;43.20;;;;;;5075540;28;19987;-70
2022/12/27 12:42:07;;;;;;;;;;;19.20;43.20;;;;;;5113533;28;20385;-69
2022/12/27 12:44:45;;;;;;;;;;;19.20;43.20;;;;;;5080471;28;19974;-69
2022/12/27 12:47:17;;;;;;;;;;;19.20;43.20;;;;;;5078956;28;19924;-69
2022/12/27 12:49:51;;;;;;;;;;;19.20;43.20;;;;;;5097952;28;19920;-68
2022/12/27 12:52:25;;;;;;;;;;;19.20;43.20;;;;;;5088885;28;19951;-70
2022/12/27 12:55:02;;;;;;;;;;;19.20;43.20;;;;;;5087909;28;19927;-69
2022/12/27 12:57:32;;;;;;;;;;;19.20;43.30;;;;;;5081269;28;19936;-69
2022/12/27 13:00:07;;;;;;;;;;;19.20;43.30;;;;;;5078255;28;19924;-69
2022/12/27 13:02:58;;;;;;;;;;;19.30;43.40;;;;;;5093437;28;19924;-69
2022/12/27 13:05:27;;;;;;;;;;;19.30;43.40;;;;;;5078750;28;19963;-69
2022/12/27 13:07:56;;;;;;;;;;;19.30;43.40;;;;;;5098226;28;19920;-69
2022/12/27 13:10:43;;;;;;;;;;;19.20;43.30;;;;;;5088028;28;19921;-68
2022/12/27 13:13:12;;;;;;;;;;;19.20;43.30;;;;;;5073867;28;19924;-69
2022/12/27 13:15:48;;;;;;;;;;;19.20;43.30;;;;;;5079164;28;19996;-69
2022/12/27 13:18:21;;;;;;;;;;;19.30;43.40;;;;;;5071370;28;19967;-68
2022/12/27 13:20:53;;;;;;;;;;;19.30;43.40;;;;;;5078578;28;19924;-68
2022/12/27 13:23:23;;;;;;;;;;;19.30;43.40;;;;;;5086934;28;19908;-69
2022/12/27 13:25:51;;;;;;;;;;;19.30;43.50;;;;;;5113519;28;19967;-69
2022/12/27 13:28:25;;;;;;;;;;;19.30;43.50;;;;;;5113227;28;19924;-68
2022/12/27 13:30:55;;;;;;;;;;;19.30;43.50;;;;;;5090206;28;20010;-68
2022/12/27 13:33:23;;;;;;;;;;;19.30;43.50;;;;;;5108745;28;19920;-69
2022/12/27 13:36:03;;;;;;;;;;;19.30;43.50;;;;;;5115127;28;20361;-68
2022/12/27 13:38:33;;;;;;;;;;;19.30;43.50;;;;;;5098720;28;19920;-68
2022/12/27 13:41:04;;;;;;;;;;;19.30;43.50;;;;;;5098082;28;19926;-69
2022/12/27 13:43:36;;;;;;;;;;;19.30;43.50;;;;;;5096147;28;19919;-68
2022/12/27 13:46:18;;;;;;;;;;;19.30;43.50;;;;;;5097713;28;19965;-68
2022/12/27 13:48:55;;;;;;;;;;;19.30;43.50;;;;;;5079777;28;20301;-68
2022/12/27 13:51:30;;;;;;;;;;;19.30;43.50;;;;;;5095241;28;19923;-68
2022/12/27 13:54:18;;;;;;;;;;;19.30;43.50;;;;;;5092425;28;19926;-69
2022/12/27 13:56:48;;;;;;;;;;;19.30;43.50;;;;;;5092325;28;19977;-69
2022/12/27 13:59:45;;;;;;;;;;;19.30;43.50;;;;;;5095630;28;20261;-68
2022/12/27 14:02:22;;;;;;;;;;;19.30;43.50;;;;;;4993468;28;19972;-68
2022/12/27 14:04:55;;;;;;;;;;;19.30;43.50;;;;;;5044191;28;20263;-67
2022/12/27 14:07:28;;;;;;;;;;;19.30;43.50;;;;;;5065469;28;19920;-68
2022/12/27 14:10:01;;;;;;;;;;;19.30;43.50;;;;;;5095447;28;20040;-69
2022/12/27 14:12:34;;;;;;;;;;;19.30;43.50;;;;;;5080803;28;19920;-68
2022/12/27 14:15:05;;;;;;;;;;;19.30;43.50;;;;;;5092472;28;19939;-69
2022/12/27 14:17:33;;;;;;;;;;;19.30;43.50;;;;;;5110852;28;19919;-72
2022/12/27 14:20:30;;;;;;;;;;;19.30;43.50;;;;;;5094844;28;19923;-68
2022/12/27 14:22:59;;;;;;;;;;;19.30;43.60;;;;;;5097621;28;19927;-69
2022/12/27 14:25:42;;;;;;;;;;;19.30;43.60;;;;;;5096616;28;20207;-69
2022/12/27 14:28:33;;;;;;;;;;;19.30;43.60;;;;;;5057353;28;19975;-68
2022/12/27 14:31:24;;;;;;;;;;;19.30;43.60;;;;;;5077096;28;19920;-70
2022/12/27 14:34:04;;;;;;;;;;;19.30;43.60;;;;;;5058826;28;19986;-68
2022/12/27 14:36:52;;;;;;;;;;;19.30;43.60;;;;;;5083136;28;19964;-69
2022/12/27 14:39:40;;;;;;;;;;;19.30;43.60;;;;;;5079679;28;19946;-71
2022/12/27 14:42:25;;;;;;;;;;;19.40;43.70;;;;;;5093680;28;19923;-72
2022/12/27 14:45:01;;;;;;;;;;;19.30;43.60;;;;;;5091982;28;20006;-71
2022/12/27 14:47:39;;;;;;;;;;;19.40;43.70;;;;;;5095991;28;19984;-64
2022/12/27 14:50:24;;;;;;;;;;;19.40;43.70;;;;;;5095251;28;19924;-63
2022/12/27 14:53:11;;;;;;;;;;;19.40;43.70;;;;;;5094164;28;19926;-64
2022/12/27 14:55:41;;;;;;;;;;;19.30;43.50;;;;;;5097005;28;19919;-64
2022/12/27 14:58:11;;;;;;;;;;;19.30;43.20;;;;;;5078678;28;19921;-66
2022/12/27 15:00:52;;;;;;;;;;;19.30;43.00;;;;;;5088040;28;19965;-64
2022/12/27 15:03:20;;;;;;;;;;;19.30;42.90;;;;;;5086137;28;19923;-64
2022/12/27 15:05:51;;;;;;;;;;;19.30;42.70;;;;;;5076615;28;19927;-65
2022/12/27 15:08:27;;;;;;;;;;;19.30;42.60;;;;;;5085914;28;19926;-69
2022/12/27 15:10:59;;;;;;;;;;;19.30;42.50;;;;;;5093993;28;20377;-68
2022/12/27 15:13:29;;;;;;;;;;;19.20;42.50;;;;;;5096897;28;19965;-68
2022/12/27 15:15:57;;;;;;;;;;;19.20;42.60;;;;;;5094133;28;19920;-68
2022/12/27 15:18:30;;;;;;;;;;;19.20;42.70;;;;;;5096464;28;19920;-68
2022/12/27 15:21:01;;;;;;;;;;;19.20;42.80;;;;;;5096689;28;19946;-68
2022/12/27 15:23:29;;;;;;;;;;;19.20;42.80;;;;;;5096638;28;19961;-68
2022/12/27 15:26:01;;;;;;;;;;;19.20;42.90;;;;;;5073147;28;20398;-68
2022/12/27 15:28:30;;;;;;;;;;;19.20;42.90;;;;;;5091284;28;19977;-69
2022/12/27 15:30:59;;;;;;;;;;;19.20;43.00;;;;;;5086904;28;19962;-69
2022/12/27 15:33:27;;;;;;;;;;;19.20;43.10;;;;;;5094478;28;19947;-68
2022/12/27 15:35:55;;;;;;;;;;;19.20;43.10;;;;;;5097021;28;19920;-68
2022/12/27 15:38:36;;;;;;;;;;;19.20;43.10;;;;;;5094543;28;19973;-68
2022/12/27 15:41:16;;;;;;;;;;;19.20;43.10;;;;;;5096092;28;19941;-68
2022/12/27 15:43:51;;;;;;;;;;;19.30;43.20;;;;;;5076042;28;19974;-69
2022/12/27 15:46:23;;;;;;;;;;;19.20;43.20;;;;;;5055921;28;19920;-68
2022/12/27 15:49:08;;;;;;;;;;;19.30;43.20;;;;;;5079293;28;19926;-69
2022/12/27 15:51:35;;;;;;;;;;;19.30;43.30;;;;;;5076664;28;19924;-69
2022/12/27 15:54:08;;;;;;;;;;;19.20;43.20;;;;;;5095786;28;19920;-70
2022/12/27 15:56:43;;;;;;;;;;;19.30;43.30;;;;;;5096087;28;19974;-71
2022/12/27 15:59:28;;;;;;;;;;;19.30;43.40;;;;;;5097162;28;19920;-71
2022/12/27 16:02:11;;;;;;;;;;;19.30;43.40;;;;;;5096495;28;19963;-71
2022/12/27 16:04:41;;;;;;;;;;;19.30;43.40;;;;;;5094798;28;19990;-71
2022/12/27 16:07:23;;;;;;;;;;;19.30;43.50;;;;;;5098167;28;19965;-70
2022/12/27 16:09:49;;;;;;;;;;;19.30;43.50;;;;;;5098551;28;19920;-71
2022/12/27 16:12:30;;;;;;;;;;;19.30;43.50;;;;;;5093309;28;19919;-68